createdAt,value
2023-06-17T00:01:58.436Z,7.66
2023-06-17T00:04:26.610Z,8.24
2023-06-17T00:06:54.802Z,9.11
2023-06-17T00:09:22.756Z,8.30
2023-06-17T00:11:52.598Z,8.15
2023-06-17T00:14:21.997Z,7.88
2023-06-17T00:16:51.513Z,7.67
2023-06-17T00:19:21.819Z,8.56
2023-06-17T00:21:51.334Z,8.50
2023-06-17T00:24:19.361Z,8.52
2023-06-17T00:26:47.822Z,8.14
2023-06-17T00:29:18.376Z,8.26
2023-06-17T00:31:46.466Z,8.05
2023-06-17T00:34:16.072Z,8.48
2023-06-17T00:36:44.017Z,8.23
2023-06-17T00:39:12.128Z,8.56
2023-06-17T00:41:40.651Z,8.00
2023-06-17T00:44:08.917Z,8.49
2023-06-17T00:46:40.638Z,8.94
2023-06-17T00:49:11.391Z,8.68
2023-06-17T00:51:41.238Z,8.88
2023-06-17T00:54:10.908Z,8.63
2023-06-17T00:56:40.111Z,8.47
2023-06-17T00:59:08.904Z,8.38
2023-06-17T01:01:37.874Z,8.97
2023-06-17T01:04:07.844Z,8.35
2023-06-17T01:06:46.431Z,8.62
2023-06-17T01:09:22.308Z,8.58
2023-06-17T01:11:57.755Z,8.68
2023-06-17T01:14:28.410Z,8.90
2023-06-17T01:16:57.549Z,8.84
2023-06-17T01:19:27.034Z,8.54
2023-06-17T01:21:59.824Z,8.77
2023-06-17T01:24:31.306Z,8.82
2023-06-17T01:27:01.064Z,8.43
2023-06-17T01:29:30.796Z,9.13
2023-06-17T01:31:59.742Z,9.09
2023-06-17T01:34:39.203Z,8.80
2023-06-17T01:37:12.457Z,8.69
2023-06-17T01:39:46.719Z,8.68
2023-06-17T01:42:21.249Z,8.88
2023-06-17T01:44:51.093Z,8.87
2023-06-17T01:47:19.359Z,8.77
2023-06-17T01:49:47.335Z,8.90
2023-06-17T01:52:15.334Z,8.59
2023-06-17T01:54:45.276Z,8.90
2023-06-17T01:57:14.315Z,8.77
2023-06-17T01:59:42.371Z,8.69
2023-06-17T02:02:10.757Z,8.79
2023-06-17T02:04:39.564Z,8.68
2023-06-17T02:07:07.677Z,8.57
2023-06-17T02:09:35.762Z,8.23
2023-06-17T02:12:06.664Z,8.51
2023-06-17T02:14:34.800Z,8.33
2023-06-17T02:17:04.262Z,8.47
2023-06-17T02:19:33.202Z,8.67
2023-06-17T02:22:01.557Z,8.51
2023-06-17T02:24:29.929Z,8.26
2023-06-17T02:26:58.862Z,8.47
2023-06-17T02:29:28.435Z,8.49
2023-06-17T02:31:56.501Z,8.50
2023-06-17T02:34:24.764Z,9.01
2023-06-17T02:36:53.098Z,8.62
2023-06-17T02:39:21.555Z,8.81
2023-06-17T02:41:49.664Z,8.46
2023-06-17T02:44:17.716Z,8.58
2023-06-17T02:46:47.471Z,8.73
2023-06-17T02:49:15.833Z,8.62
2023-06-17T02:51:44.118Z,8.50
2023-06-17T02:54:13.360Z,8.75
2023-06-17T02:56:41.671Z,8.65
2023-06-17T02:59:10.300Z,8.72
2023-06-17T03:01:40.429Z,8.48
2023-06-17T03:04:11.825Z,8.51
2023-06-17T03:06:42.092Z,8.21
2023-06-17T03:09:11.545Z,8.33
2023-06-17T03:11:41.071Z,8.70
2023-06-17T03:14:09.070Z,8.27
2023-06-17T03:16:39.739Z,8.53
2023-06-17T03:19:09.769Z,8.12
2023-06-17T03:21:42.225Z,8.53
2023-06-17T03:24:11.453Z,8.59
2023-06-17T03:26:39.908Z,8.32
2023-06-17T03:29:07.971Z,8.21
2023-06-17T03:31:36.451Z,8.60
2023-06-17T03:34:04.995Z,8.54
2023-06-17T03:36:34.946Z,8.52
2023-06-17T03:39:03.869Z,8.34
2023-06-17T03:41:36.291Z,8.11
2023-06-17T03:44:04.298Z,8.51
2023-06-17T03:46:33.050Z,8.78
2023-06-17T03:49:03.260Z,8.40
2023-06-17T03:51:31.866Z,7.76
2023-06-17T03:54:01.747Z,8.14
2023-06-17T03:56:33.748Z,8.05
2023-06-17T03:59:01.910Z,8.10
2023-06-17T04:01:31.897Z,8.15
2023-06-17T04:04:00.371Z,8.57
2023-06-17T04:06:30.252Z,8.06
2023-06-17T04:08:58.604Z,8.16
2023-06-17T04:11:30.053Z,8.16
2023-06-17T04:13:58.221Z,8.32
2023-06-17T04:16:26.280Z,8.27
2023-06-17T04:18:56.418Z,8.15
2023-06-17T04:21:25.557Z,8.00
2023-06-17T04:23:53.688Z,8.03
2023-06-17T04:26:24.068Z,7.93
2023-06-17T04:28:55.275Z,8.39
2023-06-17T04:31:24.123Z,7.97
2023-06-17T04:33:52.421Z,8.36
2023-06-17T04:36:22.135Z,8.44
2023-06-17T04:38:51.254Z,7.95
2023-06-17T04:41:20.283Z,7.69
2023-06-17T04:43:49.852Z,8.12
2023-06-17T04:46:21.405Z,7.97
2023-06-17T04:48:49.948Z,7.74
2023-06-17T04:51:19.504Z,7.78
2023-06-17T04:53:47.580Z,7.51
2023-06-17T04:56:15.619Z,7.67
2023-06-17T04:58:44.140Z,7.45
2023-06-17T05:01:16.899Z,7.68
2023-06-17T05:03:46.923Z,7.93
2023-06-17T05:06:15.593Z,8.02
2023-06-17T05:08:43.702Z,7.80
2023-06-17T05:11:13.489Z,7.82
2023-06-17T05:13:41.914Z,7.83
2023-06-17T05:16:10.831Z,7.54
2023-06-17T05:18:40.931Z,7.59
2023-06-17T05:21:10.577Z,7.64
2023-06-17T05:23:39.112Z,7.53
2023-06-17T05:26:09.237Z,7.77
2023-06-17T05:28:37.878Z,7.92
2023-06-17T05:31:06.308Z,7.13
2023-06-17T05:33:34.722Z,7.67
2023-06-17T05:36:03.148Z,7.68
2023-06-17T05:38:33.808Z,7.82
2023-06-17T05:41:02.638Z,7.30
2023-06-17T05:43:32.604Z,7.11
2023-06-17T05:46:02.195Z,7.25
2023-06-17T05:48:30.853Z,7.15
2023-06-17T05:50:58.913Z,7.72
2023-06-17T05:53:27.547Z,7.12
2023-06-17T05:55:57.210Z,6.92
2023-06-17T05:58:25.275Z,7.32
2023-06-17T06:00:59.112Z,8.45
2023-06-17T06:03:27.380Z,8.05
2023-06-17T06:05:55.785Z,7.01
2023-06-17T06:08:23.802Z,6.97
2023-06-17T06:10:52.093Z,6.97
2023-06-17T06:13:21.951Z,7.23
2023-06-17T06:15:50.987Z,7.16
2023-06-17T06:18:19.168Z,6.77
2023-06-17T06:20:47.487Z,7.14
2023-06-17T06:23:15.694Z,6.91
2023-06-17T06:25:43.836Z,7.52
2023-06-17T06:28:12.565Z,8.37
2023-06-17T06:30:42.111Z,7.62
2023-06-17T06:33:10.425Z,6.97
2023-06-17T06:35:39.044Z,6.52
2023-06-17T06:38:09.328Z,6.66
2023-06-17T06:40:38.878Z,6.50
2023-06-17T06:43:06.919Z,7.04
2023-06-17T06:45:51.196Z,7.17
2023-06-17T06:48:19.429Z,6.91
2023-06-17T06:50:47.681Z,6.87
2023-06-17T06:53:16.286Z,6.83
2023-06-17T06:55:44.681Z,7.06
2023-06-17T06:58:12.849Z,7.55
2023-06-17T07:00:41.445Z,6.59
2023-06-17T07:03:11.923Z,6.44
2023-06-17T07:05:40.661Z,6.56
2023-06-17T07:08:13.163Z,6.37
2023-06-17T07:10:42.671Z,6.40
2023-06-17T07:13:12.039Z,6.33
2023-06-17T07:15:42.625Z,5.90
2023-06-17T07:18:15.784Z,6.41
2023-06-17T07:20:44.370Z,6.12
2023-06-17T07:23:13.766Z,6.03
2023-06-17T07:25:43.496Z,5.93
2023-06-17T07:28:13.245Z,5.63
2023-06-17T07:30:42.698Z,5.64
2023-06-17T07:33:12.362Z,6.01
2023-06-17T07:35:40.510Z,6.39
2023-06-17T07:38:11.655Z,6.33
2023-06-17T07:40:40.774Z,6.14
2023-06-17T07:43:09.119Z,5.76
2023-06-17T07:45:37.478Z,6.17
2023-06-17T07:48:06.309Z,5.94
2023-06-17T07:50:35.708Z,5.93
2023-06-17T07:53:06.076Z,5.56
2023-06-17T07:55:35.250Z,5.68
2023-06-17T07:58:05.933Z,5.46
2023-06-17T08:00:36.286Z,5.50
2023-06-17T08:03:04.929Z,5.07
2023-06-17T08:05:32.977Z,5.28
2023-06-17T08:08:02.326Z,5.32
2023-06-17T08:10:30.641Z,5.49
2023-06-17T08:12:58.732Z,5.31
2023-06-17T08:15:26.900Z,5.36
2023-06-17T08:17:55.548Z,5.47
2023-06-17T08:20:26.649Z,5.64
2023-06-17T08:22:55.193Z,5.71
2023-06-17T08:25:28.142Z,5.58
2023-06-17T08:27:56.363Z,5.97
2023-06-17T08:30:24.459Z,5.72
2023-06-17T08:32:52.573Z,5.71
2023-06-17T08:35:21.676Z,5.50
2023-06-17T08:37:49.876Z,5.69
2023-06-17T08:40:18.562Z,5.66
2023-06-17T08:42:53.550Z,7.19
2023-06-17T08:45:24.230Z,5.77
2023-06-17T08:48:17.601Z,5.26
2023-06-17T08:50:48.517Z,6.82
2023-06-17T08:53:17.061Z,6.02
2023-06-17T08:55:45.708Z,5.37
2023-06-17T08:58:15.276Z,5.50
2023-06-17T09:00:43.624Z,5.38
2023-06-17T09:03:14.505Z,4.95
2023-06-17T09:05:42.903Z,5.05
2023-06-17T09:08:11.643Z,5.61
2023-06-17T09:10:46.608Z,5.24
2023-06-17T09:13:15.988Z,7.43
2023-06-17T09:15:45.688Z,7.55
2023-06-17T09:18:17.506Z,6.70
2023-06-17T09:20:52.769Z,5.65
2023-06-17T09:23:21.653Z,5.78
2023-06-17T09:25:49.721Z,5.53
2023-06-17T09:28:19.442Z,5.29
2023-06-17T09:30:54.801Z,5.35
2023-06-17T09:33:24.531Z,5.49
2023-06-17T09:36:01.806Z,5.50
2023-06-17T09:38:30.228Z,6.04
2023-06-17T09:41:00.126Z,6.30
2023-06-17T09:43:29.892Z,5.02
2023-06-17T09:46:00.871Z,5.47
2023-06-17T09:48:33.395Z,5.15
2023-06-17T09:51:03.219Z,5.72
2023-06-17T09:53:32.028Z,5.11
2023-06-17T09:56:01.770Z,5.40
2023-06-17T09:58:33.023Z,5.54
2023-06-17T10:01:07.682Z,5.75
2023-06-17T10:03:38.504Z,6.18
2023-06-17T10:06:10.602Z,5.76
2023-06-17T10:08:41.366Z,6.08
2023-06-17T10:11:09.902Z,5.85
2023-06-17T10:13:42.244Z,5.67
2023-06-17T10:16:15.007Z,5.71
2023-06-17T10:18:48.843Z,5.48
2023-06-17T10:21:21.359Z,5.77
2023-06-17T10:23:51.875Z,5.57
2023-06-17T10:26:22.372Z,5.27
2023-06-17T10:29:08.124Z,5.53
2023-06-17T10:31:40.765Z,6.06
2023-06-17T10:34:11.218Z,5.84
2023-06-17T10:36:39.486Z,5.76
2023-06-17T10:39:10.637Z,5.95
2023-06-17T10:42:01.117Z,6.11
2023-06-17T10:44:43.396Z,6.00
2023-06-17T10:47:21.733Z,5.68
2023-06-17T10:49:51.414Z,5.57
2023-06-17T10:52:20.196Z,5.83
2023-06-17T10:54:52.897Z,7.52
2023-06-17T10:57:34.738Z,5.82
2023-06-17T11:00:10.083Z,5.60
2023-06-17T11:02:40.244Z,6.19
2023-06-17T11:05:10.560Z,5.89
2023-06-17T11:07:38.667Z,5.65
2023-06-17T11:10:07.811Z,5.99
2023-06-17T11:12:37.492Z,6.06
2023-06-17T11:15:08.717Z,5.64
2023-06-17T11:17:37.056Z,5.63
2023-06-17T11:20:08.059Z,5.86
2023-06-17T11:22:38.670Z,5.55
2023-06-17T11:25:07.675Z,5.88
2023-06-17T11:27:35.963Z,5.97
2023-06-17T11:30:05.222Z,6.04
2023-06-17T11:32:36.886Z,6.13
2023-06-17T11:35:06.077Z,5.93
2023-06-17T11:37:34.232Z,5.90
2023-06-17T11:40:03.155Z,6.25
2023-06-17T11:42:31.608Z,5.88
2023-06-17T11:45:00.280Z,6.39
2023-06-17T11:47:37.945Z,5.71
2023-06-17T11:50:08.344Z,5.78
2023-06-17T11:52:37.413Z,6.18
2023-06-17T11:55:06.634Z,6.17
2023-06-17T11:57:35.144Z,6.24
2023-06-17T12:00:10.875Z,6.47
2023-06-17T12:02:46.992Z,5.90
2023-06-17T12:05:15.319Z,6.03
2023-06-17T12:07:44.668Z,5.86
2023-06-17T12:10:14.398Z,6.08
2023-06-17T12:12:42.709Z,6.15
2023-06-17T12:15:17.176Z,6.16
2023-06-17T12:17:49.994Z,6.51
2023-06-17T12:20:21.834Z,6.37
2023-06-17T12:22:52.516Z,6.04
2023-06-17T12:25:21.882Z,6.36
2023-06-17T12:27:51.615Z,6.07
2023-06-17T12:30:19.913Z,6.21
2023-06-17T12:32:51.989Z,6.47
2023-06-17T12:35:20.773Z,6.04
2023-06-17T12:37:52.422Z,6.31
2023-06-17T12:40:20.646Z,6.26
2023-06-17T12:42:49.216Z,5.98
2023-06-17T12:45:17.424Z,5.93
2023-06-17T12:47:45.350Z,6.05
2023-06-17T12:50:17.026Z,6.10
2023-06-17T12:52:45.253Z,6.39
2023-06-17T12:55:13.473Z,6.47
2023-06-17T12:57:41.792Z,6.28
2023-06-17T13:00:11.909Z,5.99
2023-06-17T13:02:40.298Z,6.48
2023-06-17T13:05:09.757Z,6.69
2023-06-17T13:07:39.381Z,6.52
2023-06-17T13:10:08.890Z,6.68
2023-06-17T13:12:37.005Z,6.37
2023-06-17T13:15:06.934Z,6.13
2023-06-17T13:17:35.883Z,6.13
2023-06-17T13:20:05.362Z,6.40
2023-06-17T13:22:36.280Z,6.57
2023-06-17T13:25:07.097Z,6.18
2023-06-17T13:27:35.257Z,6.31
2023-06-17T13:30:03.820Z,6.44
2023-06-17T13:32:32.614Z,6.64
2023-06-17T13:35:03.765Z,6.57
2023-06-17T13:37:32.589Z,6.21
2023-06-17T13:40:01.205Z,6.52
2023-06-17T13:42:32.358Z,6.85
2023-06-17T13:45:01.054Z,6.83
2023-06-17T13:47:29.472Z,6.19
2023-06-17T13:49:57.743Z,6.04
2023-06-17T13:52:26.012Z,6.55
2023-06-17T13:54:54.423Z,6.76
2023-06-17T13:57:23.215Z,6.57
2023-06-17T13:59:52.882Z,6.15
2023-06-17T14:02:21.290Z,6.48
2023-06-17T14:04:51.672Z,6.57
2023-06-17T14:07:19.848Z,6.41
2023-06-17T14:09:48.944Z,6.15
2023-06-17T14:12:17.217Z,6.40
2023-06-17T14:14:46.072Z,6.34
2023-06-17T14:17:16.007Z,6.83
2023-06-17T14:19:44.293Z,5.97
2023-06-17T14:22:12.290Z,6.24
2023-06-17T14:24:41.752Z,6.39
2023-06-17T14:27:25.049Z,6.37
2023-06-17T14:29:53.257Z,6.62
2023-06-17T14:32:23.041Z,6.54
2023-06-17T14:34:54.254Z,6.59
2023-06-17T14:37:23.225Z,6.47
2023-06-17T14:39:51.510Z,6.63
2023-06-17T14:42:19.792Z,7.81
2023-06-17T14:44:47.850Z,8.39
2023-06-17T14:47:19.757Z,46.49
2023-06-17T14:49:51.505Z,45.95
2023-06-17T14:52:20.183Z,41.67
2023-06-17T14:54:51.269Z,28.30
2023-06-17T14:57:19.452Z,66.05
2023-06-17T14:59:48.882Z,59.24
2023-06-17T15:02:24.173Z,24.13
2023-06-17T15:04:53.878Z,18.99
2023-06-17T15:07:23.458Z,13.03
2023-06-17T15:09:51.531Z,9.53
2023-06-17T15:12:19.830Z,8.45
2023-06-17T15:14:50.252Z,7.51
2023-06-17T15:17:18.270Z,7.26
2023-06-17T15:19:46.744Z,7.45
2023-06-17T15:22:16.408Z,7.14
2023-06-17T15:24:44.796Z,7.07
2023-06-17T15:27:12.863Z,6.88
2023-06-17T15:29:41.468Z,6.84
2023-06-17T15:32:10.526Z,6.92
2023-06-17T15:34:38.523Z,6.84
2023-06-17T15:37:08.099Z,7.04
2023-06-17T15:39:37.662Z,7.21
2023-06-17T15:42:07.046Z,6.84
2023-06-17T15:44:35.013Z,6.92
2023-06-17T15:47:03.292Z,6.91
2023-06-17T15:49:32.334Z,7.45
2023-06-17T15:52:00.318Z,7.54
2023-06-17T15:54:28.440Z,7.11
2023-06-17T15:56:58.190Z,7.09
2023-06-17T15:59:27.316Z,7.21
2023-06-17T16:01:55.660Z,7.13
2023-06-17T16:04:34.979Z,6.76
2023-06-17T16:07:05.549Z,6.76
2023-06-17T16:09:37.677Z,6.82
2023-06-17T16:12:08.814Z,6.88
2023-06-17T16:14:39.204Z,6.62
2023-06-17T16:17:12.516Z,6.91
2023-06-17T16:19:41.695Z,7.12
2023-06-17T16:22:13.538Z,6.91
2023-06-17T16:24:44.681Z,6.77
2023-06-17T16:27:14.461Z,7.24
2023-06-17T16:29:42.998Z,7.02
2023-06-17T16:32:11.321Z,6.99
2023-06-17T16:34:39.807Z,7.12
2023-06-17T16:37:08.036Z,6.60
2023-06-17T16:39:36.843Z,6.99
2023-06-17T16:42:07.500Z,6.51
2023-06-17T16:44:37.566Z,6.68
2023-06-17T16:47:06.422Z,6.90
2023-06-17T16:49:34.711Z,6.98
2023-06-17T16:52:03.305Z,6.87
2023-06-17T16:54:31.670Z,6.49
2023-06-17T16:57:00.509Z,6.64
2023-06-17T16:59:28.465Z,6.53
2023-06-17T17:02:00.102Z,6.61
2023-06-17T17:04:28.956Z,6.38
2023-06-17T17:06:57.160Z,6.30
2023-06-17T17:09:26.517Z,6.33
2023-06-17T17:11:54.806Z,6.44
2023-06-17T17:14:23.207Z,6.37
2023-06-17T17:16:53.343Z,6.90
2023-06-17T17:19:23.173Z,6.99
2023-06-17T17:21:51.657Z,6.69
2023-06-17T17:24:19.953Z,6.64
2023-06-17T17:26:48.177Z,6.34
2023-06-17T17:29:16.953Z,6.17
2023-06-17T17:31:45.154Z,6.00
2023-06-17T17:34:13.266Z,6.13
2023-06-17T17:36:44.583Z,6.31
2023-06-17T17:39:13.620Z,6.73
2023-06-17T17:41:41.651Z,6.54
2023-06-17T17:44:09.954Z,6.25
2023-06-17T17:46:38.280Z,6.11
2023-06-17T17:49:06.297Z,5.84
2023-06-17T17:51:34.821Z,6.23
2023-06-17T17:54:04.466Z,6.09
2023-06-17T17:56:33.089Z,6.41
2023-06-17T17:59:01.596Z,6.42
2023-06-17T18:01:29.625Z,6.46
2023-06-17T18:03:58.969Z,6.30
2023-06-17T18:06:30.299Z,6.15
2023-06-17T18:08:58.563Z,6.15
2023-06-17T18:11:28.732Z,5.94
2023-06-17T18:13:57.124Z,5.88
2023-06-17T18:16:26.060Z,6.21
2023-06-17T18:18:54.702Z,6.17
2023-06-17T18:21:25.595Z,6.71
2023-06-17T18:23:53.984Z,6.24
2023-06-17T18:26:22.308Z,6.41
2023-06-17T18:28:51.607Z,6.70
2023-06-17T18:31:19.558Z,6.79
2023-06-17T18:33:47.597Z,6.35
2023-06-17T18:36:15.905Z,6.69
2023-06-17T18:38:44.373Z,7.74
2023-06-17T18:41:12.416Z,9.13
2023-06-17T18:43:40.469Z,8.31
2023-06-17T18:46:10.227Z,7.54
2023-06-17T18:48:39.211Z,7.74
2023-06-17T18:51:07.513Z,7.71
2023-06-17T18:53:37.097Z,7.14
2023-06-17T18:56:05.807Z,7.38
2023-06-17T18:58:34.297Z,7.98
2023-06-17T19:01:02.414Z,8.17
2023-06-17T19:03:33.455Z,7.78
2023-06-17T19:06:01.760Z,8.34
2023-06-17T19:08:29.725Z,8.60
2023-06-17T19:10:57.753Z,8.81
2023-06-17T19:13:26.012Z,9.20
2023-06-17T19:15:54.389Z,9.36
2023-06-17T19:18:24.956Z,9.30
2023-06-17T19:20:54.988Z,9.26
2023-06-17T19:23:23.377Z,8.94
2023-06-17T19:25:51.583Z,9.16
2023-06-17T19:28:19.900Z,8.81
2023-06-17T19:30:49.873Z,8.88
2023-06-17T19:33:18.187Z,8.82
2023-06-17T19:35:46.489Z,8.74
2023-06-17T19:38:16.722Z,8.43
2023-06-17T19:40:44.721Z,9.07
2023-06-17T19:43:13.901Z,9.20
2023-06-17T19:45:44.651Z,10.18
2023-06-17T19:48:12.737Z,10.21
2023-06-17T19:50:41.393Z,9.96
2023-06-17T19:53:09.755Z,10.41
2023-06-17T19:55:40.946Z,10.83
2023-06-17T19:58:09.063Z,22.22
2023-06-17T20:00:38.328Z,20.90
2023-06-17T20:03:06.481Z,17.90
2023-06-17T20:05:34.790Z,20.79
2023-06-17T20:08:03.011Z,23.37
2023-06-17T20:10:33.609Z,24.62
2023-06-17T20:13:03.204Z,28.36
2023-06-17T20:15:31.853Z,30.77
2023-06-17T20:18:00.886Z,22.73
2023-06-17T20:20:29.170Z,19.63
2023-06-17T20:22:57.755Z,17.57
2023-06-17T20:25:25.848Z,15.26
2023-06-17T20:27:54.013Z,14.88
2023-06-17T20:30:23.775Z,14.54
2023-06-17T20:32:52.064Z,14.63
2023-06-17T20:35:20.530Z,15.68
2023-06-17T20:37:48.813Z,15.59
2023-06-17T20:40:16.836Z,14.95
2023-06-17T20:42:45.295Z,14.42
2023-06-17T20:45:13.396Z,14.37
2023-06-17T20:47:43.262Z,14.15
2023-06-17T20:50:13.116Z,16.57
2023-06-17T20:52:41.493Z,19.32
2023-06-17T20:55:10.709Z,18.76
2023-06-17T20:57:39.276Z,18.83
2023-06-17T21:00:09.100Z,21.28
2023-06-17T21:02:38.046Z,21.07
2023-06-17T21:05:08.957Z,20.88
2023-06-17T21:07:37.141Z,19.94
2023-06-17T21:10:06.114Z,17.92
2023-06-17T21:12:35.882Z,16.96
2023-06-17T21:15:04.935Z,16.50
2023-06-17T21:17:33.034Z,17.33
2023-06-17T21:20:01.658Z,21.46
2023-06-17T21:22:31.055Z,22.34
2023-06-17T21:25:00.238Z,19.01
2023-06-17T21:27:28.408Z,18.47
2023-06-17T21:29:56.357Z,25.94
2023-06-17T21:32:25.141Z,32.20
2023-06-17T21:34:53.545Z,23.17
2023-06-17T21:37:21.465Z,18.31
2023-06-17T21:39:50.912Z,17.31
2023-06-17T21:42:20.360Z,16.73
2023-06-17T21:44:48.475Z,15.73
2023-06-17T21:47:16.490Z,15.24
2023-06-17T21:49:46.084Z,14.88
2023-06-17T21:52:15.083Z,14.70
2023-06-17T21:54:43.953Z,14.43
2023-06-17T21:57:13.972Z,13.41
2023-06-17T21:59:42.546Z,13.68
2023-06-17T22:02:10.835Z,13.65
2023-06-17T22:04:38.834Z,13.83
2023-06-17T22:07:07.637Z,14.45
2023-06-17T22:09:35.699Z,15.23
2023-06-17T22:12:04.071Z,15.37
2023-06-17T22:14:33.802Z,14.83
2023-06-17T22:17:02.231Z,14.92
2023-06-17T22:19:30.181Z,13.36
2023-06-17T22:21:58.420Z,12.36
2023-06-17T22:24:26.437Z,12.33
2023-06-17T22:26:54.760Z,11.51
2023-06-17T22:29:23.355Z,11.17
2023-06-17T22:31:52.810Z,10.98
2023-06-17T22:34:20.833Z,11.92
2023-06-17T22:36:49.675Z,14.12
2023-06-17T22:39:17.823Z,14.86
2023-06-17T22:41:45.847Z,17.27
2023-06-17T22:44:14.818Z,16.46
2023-06-17T22:46:42.849Z,15.29
2023-06-17T22:49:12.238Z,14.13
2023-06-17T22:51:40.487Z,15.38
2023-06-17T22:54:08.922Z,15.65
2023-06-17T22:56:36.952Z,11.58
2023-06-17T22:59:05.035Z,12.14
2023-06-17T23:01:33.184Z,12.26
2023-06-17T23:04:01.199Z,12.32
2023-06-17T23:06:31.048Z,12.99
2023-06-17T23:08:59.671Z,14.96
2023-06-17T23:11:27.680Z,14.70
2023-06-17T23:13:56.032Z,14.79
2023-06-17T23:16:24.351Z,14.39
2023-06-17T23:18:53.104Z,13.28
2023-06-17T23:21:21.328Z,13.57
2023-06-17T23:23:50.823Z,15.58
2023-06-17T23:26:19.091Z,20.34
2023-06-17T23:28:47.325Z,22.00
2023-06-17T23:31:15.365Z,19.80
2023-06-17T23:33:44.008Z,18.20
2023-06-17T23:36:12.076Z,18.30
2023-06-17T23:38:41.849Z,16.39
2023-06-17T23:41:11.276Z,15.09
2023-06-17T23:43:39.269Z,14.63
2023-06-17T23:46:07.598Z,13.92
2023-06-17T23:48:35.644Z,15.50
2023-06-17T23:51:04.120Z,17.15
2023-06-17T23:53:32.256Z,17.86
2023-06-17T23:56:01.022Z,17.98
2023-06-17T23:58:31.954Z,19.56
